Time;durP1;ratioP1;P1;durP2;ratioP2;P2;SDS_P1;SDS_P2;PMS_P1;PMS_P2;Temp;Humidity;BMP_temperature;BMP_pressure;BME280_temperature;BME280_humidity;BME280_pressure;Samples;Min_cycle;Max_cycle;Signal;HPM_P1;HPM_P2
2023/10/13 00:02:11;;;;;;;5.03;3.90;;;20.70;82.70;21.80;100536.00;;;;5091688;28;20177;-48
2023/10/13 00:04:37;;;;;;;5.93;4.37;;;20.70;81.80;21.80;100529.00;;;;5090861;28;20624;-47
2023/10/13 00:07:04;;;;;;;5.20;4.30;;;20.70;82.30;21.80;100536.00;;;;5074207;28;20670;-48
2023/10/13 00:09:32;;;;;;;5.50;4.80;;;20.70;82.50;21.80;100530.00;;;;5081131;28;20203;-48
2023/10/13 00:11:59;;;;;;;7.37;4.50;;;20.70;82.50;21.80;100528.00;;;;5090480;28;20669;-48
2023/10/13 00:14:33;;;;;;;4.30;3.87;;;20.60;82.80;21.80;100527.00;;;;5089464;28;20176;-47
2023/10/13 00:17:42;;;;;;;5.53;4.30;;;20.60;82.70;21.70;100526.00;;;;5090469;28;20641;-48
2023/10/13 00:19:52;;;;;;;5.07;4.30;;;20.60;82.70;21.70;100525.00;;;;5075681;28;20270;-48
2023/10/13 00:22:19;;;;;;;6.07;4.77;;;20.60;83.00;21.70;100525.00;;;;5088552;28;20169;-47
2023/10/13 00:24:51;;;;;;;4.30;3.90;;;20.60;82.90;21.70;100516.00;;;;5087620;28;20210;-48
2023/10/13 00:27:29;;;;;;;4.77;4.30;;;20.60;82.80;21.70;100505.00;;;;5087454;28;20176;-47
2023/10/13 00:30:22;;;;;;;4.73;4.33;;;20.60;82.50;21.70;100502.00;;;;5087130;28;20284;-48
2023/10/13 00:32:54;;;;;;;7.00;4.57;;;20.60;82.70;21.70;100487.00;;;;5088205;28;20230;-48
2023/10/13 00:35:35;;;;;;;5.70;4.67;;;20.50;82.60;21.70;100495.00;;;;5089449;28;20549;-47
2023/10/13 00:38:04;;;;;;;4.83;4.23;;;20.60;82.90;21.70;100489.00;;;;5089332;28;20686;-48
2023/10/13 00:43:32;;;;;;;5.30;4.30;;;20.50;83.10;21.70;100480.00;;;;5089406;28;20733;-48
2023/10/13 00:45:55;;;;;;;5.70;4.90;;;20.50;83.10;21.70;100489.00;;;;5085711;28;20291;-48
2023/10/13 00:48:32;;;;;;;4.70;4.30;;;20.50;83.50;21.70;100476.00;;;;5088311;28;20208;-51
2023/10/13 00:51:08;;;;;;;5.27;4.77;;;20.50;83.10;21.60;100474.00;;;;5087497;28;20188;-48
2023/10/13 00:53:37;;;;;;;5.33;4.83;;;20.50;83.10;21.60;100478.00;;;;5089079;28;20176;-48
2023/10/13 00:56:07;;;;;;;4.97;4.47;;;20.50;83.20;21.60;100476.00;;;;5088781;28;20224;-48
2023/10/13 00:58:35;;;;;;;5.87;4.80;;;20.50;83.10;21.60;100474.00;;;;5088668;28;20522;-48
2023/10/13 01:01:28;;;;;;;5.27;4.53;;;20.50;83.30;21.60;100466.00;;;;5082031;28;20201;-47
2023/10/13 01:03:59;;;;;;;6.63;4.90;;;20.50;83.10;21.60;100461.00;;;;5082158;28;20654;-48
2023/10/13 01:06:27;;;;;;;5.47;4.90;;;20.50;83.10;21.60;100451.00;;;;5086724;28;20191;-47
2023/10/13 01:09:13;;;;;;;5.00;4.50;;;20.50;83.10;21.60;100454.00;;;;5079367;28;20250;-47
2023/10/13 01:11:42;;;;;;;5.30;4.80;;;20.50;82.90;21.60;100450.00;;;;5087881;28;20256;-47
2023/10/13 01:14:11;;;;;;;5.37;4.67;;;20.40;83.80;21.60;100446.00;;;;5091332;28;20177;-47
2023/10/13 01:16:45;;;;;;;5.20;4.70;;;20.50;83.60;21.60;100448.00;;;;5091736;28;20184;-48
2023/10/13 01:19:14;;;;;;;5.83;4.80;;;20.50;83.40;21.60;100443.00;;;;5090223;28;20225;-47
2023/10/13 01:21:47;;;;;;;5.17;4.50;;;20.50;83.10;21.60;100435.00;;;;5088416;28;20177;-47
2023/10/13 01:24:13;;;;;;;5.00;4.50;;;20.50;82.90;21.60;100443.00;;;;5087442;28;20268;-47
2023/10/13 01:26:40;;;;;;;6.07;4.90;;;20.50;83.10;21.60;100437.00;;;;5086805;28;20256;-47
2023/10/13 01:29:12;;;;;;;5.07;4.43;;;20.50;83.10;21.60;100435.00;;;;5087972;28;20232;-48
2023/10/13 01:31:48;;;;;;;7.07;4.60;;;20.50;83.10;21.60;100435.00;;;;5087851;28;20173;-47
2023/10/13 01:34:24;;;;;;;5.10;4.57;;;20.60;83.00;21.60;100427.00;;;;5088015;28;20188;-48
2023/10/13 01:36:51;;;;;;;5.90;4.87;;;20.50;83.10;21.60;100421.00;;;;5088586;28;20229;-47
2023/10/13 01:39:18;;;;;;;6.93;4.90;;;20.40;84.00;21.60;100416.00;;;;5087909;28;20208;-47
2023/10/13 01:41:44;;;;;;;5.73;5.13;;;20.30;84.40;21.50;100420.00;;;;5087739;28;20227;-48
2023/10/13 01:44:14;;;;;;;6.37;5.00;;;20.30;84.40;21.50;100419.00;;;;5088140;28;20667;-47
2023/10/13 01:46:42;;;;;;;9.23;5.20;;;20.30;83.90;21.50;100417.00;;;;5088108;28;20189;-47
2023/10/13 01:49:08;;;;;;;6.27;5.10;;;20.30;84.20;21.50;100408.00;;;;5086060;28;20341;-54
2023/10/13 01:51:34;;;;;;;5.47;4.83;;;20.40;84.50;21.50;100405.00;;;;5098929;28;20183;-48
2023/10/13 01:54:02;;;;;;;6.87;4.90;;;20.30;84.20;21.50;100407.00;;;;5092251;28;20621;-48
2023/10/13 01:56:31;;;;;;;6.73;4.80;;;20.30;84.60;21.50;100399.00;;;;5089338;28;20268;-47
2023/10/13 01:58:57;;;;;;;6.60;5.30;;;20.20;84.90;21.50;100390.00;;;;5086727;28;20572;-47
2023/10/13 02:01:29;;;;;;;6.47;4.83;;;20.20;85.00;21.40;100394.00;;;;5089960;28;20214;-47
2023/10/13 02:04:03;;;;;;;6.13;4.80;;;20.30;84.50;21.40;100389.00;;;;5090416;28;20675;-47
2023/10/13 02:06:36;;;;;;;6.50;5.20;;;20.30;84.70;21.40;100385.00;;;;5101536;28;20172;-48
2023/10/13 02:09:14;;;;;;;6.53;5.33;;;20.30;84.80;21.40;100375.00;;;;5086256;28;20285;-48
2023/10/13 02:11:41;;;;;;;6.30;5.27;;;20.30;84.90;21.40;100339.00;;;;5087621;28;20256;-47
2023/10/13 02:14:07;;;;;;;6.60;5.07;;;20.20;84.90;21.40;100370.00;;;;5087162;28;20184;-47
2023/10/13 02:16:33;;;;;;;6.70;5.93;;;20.30;84.60;21.40;100374.00;;;;5087804;28;20263;-47
2023/10/13 02:19:04;;;;;;;6.50;5.90;;;20.20;85.10;21.40;100370.00;;;;5069550;28;20674;-47
2023/10/13 02:21:32;;;;;;;7.07;5.40;;;20.30;85.40;21.40;100370.00;;;;5087785;28;20188;-48
2023/10/13 02:24:04;;;;;;;5.90;5.30;;;20.30;84.60;21.40;100367.00;;;;5068235;28;20480;-46
2023/10/13 02:26:30;;;;;;;7.97;5.83;;;20.30;85.10;21.40;100363.00;;;;5088266;28;20673;-48
2023/10/13 02:29:04;;;;;;;5.93;5.33;;;20.30;85.20;21.40;100356.00;;;;5091768;28;20276;-47
2023/10/13 02:31:30;;;;;;;7.20;5.23;;;20.20;85.40;21.40;100357.00;;;;5073732;28;20242;-47
2023/10/13 02:33:55;;;;;;;5.50;5.03;;;20.20;84.70;21.40;100339.00;;;;5069648;28;20527;-47
2023/10/13 02:36:36;;;;;;;6.33;5.60;;;20.20;85.10;21.40;100343.00;;;;5053286;28;20603;-51
2023/10/13 02:39:07;;;;;;;6.73;5.50;;;20.30;85.40;21.40;100334.00;;;;5068812;28;20181;-47
2023/10/13 02:41:36;;;;;;;5.77;4.77;;;20.20;85.40;21.40;100314.00;;;;5070413;28;20227;-48
2023/10/13 02:44:05;;;;;;;8.27;5.13;;;20.30;83.90;21.40;100323.00;;;;5070109;28;20213;-48
2023/10/13 02:46:32;;;;;;;7.40;5.60;;;20.20;85.40;21.30;100318.00;;;;5053168;28;20561;-47
2023/10/13 02:49:01;;;;;;;6.63;5.30;;;20.20;85.50;21.30;100309.00;;;;5069689;28;20656;-47
2023/10/13 02:51:36;;;;;;;6.10;5.50;;;20.20;85.80;21.30;100320.00;;;;5069410;28;20236;-47
2023/10/13 02:54:09;;;;;;;7.13;6.03;;;20.20;86.40;21.30;100308.00;;;;5070030;28;20184;-47
2023/10/13 02:56:35;;;;;;;7.90;6.00;;;20.10;87.30;21.30;100322.00;;;;5070971;28;20212;-47
2023/10/13 02:59:04;;;;;;;8.00;5.20;;;20.00;87.50;21.20;100309.00;;;;5070366;28;20176;-47
2023/10/13 03:01:36;;;;;;;7.00;5.60;;;20.10;86.30;21.20;100295.00;;;;5070427;28;20194;-47
2023/10/13 03:04:03;;;;;;;6.77;5.33;;;20.00;87.30;21.20;100311.00;;;;5072143;28;20185;-48
2023/10/13 03:06:32;;;;;;;6.33;5.67;;;20.10;87.30;21.20;100301.00;;;;5089846;28;20186;-47
2023/10/13 03:09:18;;;;;;;7.57;5.80;;;20.10;87.50;21.10;100298.00;;;;5092483;28;20197;-48
2023/10/13 03:11:48;;;;;;;6.27;5.67;;;20.00;87.20;21.20;100301.00;;;;5072314;28;20311;-47
2023/10/13 03:14:23;;;;;;;8.60;6.17;;;20.00;87.80;21.20;100297.00;;;;5071763;28;20770;-47
2023/10/13 03:17:18;;;;;;;6.37;5.60;;;19.90;88.20;21.20;100286.00;;;;5084186;28;20175;-48
2023/10/13 03:19:51;;;;;;;7.20;6.10;;;19.90;87.80;21.10;100285.00;;;;5091679;28;20687;-47
2023/10/13 03:22:19;;;;;;;7.17;6.10;;;19.80;89.70;21.00;100278.00;;;;5073974;28;20219;-47
2023/10/13 03:24:46;;;;;;;6.30;5.67;;;19.70;89.80;21.00;100277.00;;;;5090762;28;20176;-49
2023/10/13 03:27:16;;;;;;;8.73;6.23;;;19.70;89.00;21.00;100286.00;;;;5090387;28;20181;-47
2023/10/13 03:29:43;;;;;;;7.50;5.80;;;19.80;89.90;21.00;100270.00;;;;5091572;28;20193;-49
2023/10/13 03:32:16;;;;;;;6.50;5.10;;;19.80;88.00;21.00;100267.00;;;;5091637;28;20179;-46
2023/10/13 03:35:37;;;;;;;6.90;5.30;;;20.00;87.80;21.10;100262.00;;;;5091304;28;20330;-47
2023/10/13 03:37:40;;;;;;;7.33;5.53;;;20.10;87.10;21.10;100260.00;;;;5077949;28;20221;-47
2023/10/13 03:43:45;;;;;;;9.23;5.93;;;20.10;87.30;21.20;100248.00;;;;5091180;28;20606;-48
2023/10/13 03:45:47;;;;;;;8.57;5.43;;;20.10;87.30;21.20;100249.00;;;;5061815;28;20224;-47
2023/10/13 03:53:34;;;;;;;6.77;5.20;;;20.30;86.00;21.30;100239.00;;;;5093498;28;20246;-47
2023/10/13 03:56:25;;;;;;;6.67;5.30;;;20.20;86.70;21.30;100232.00;;;;5091573;28;20222;-47
2023/10/13 03:58:53;;;;;;;5.90;5.20;;;20.30;86.10;21.30;100231.00;;;;5092242;28;20169;-48
2023/10/13 04:01:31;;;;;;;5.53;5.03;;;20.30;85.70;21.30;100215.00;;;;5092268;28;20203;-48
2023/10/13 04:04:04;;;;;;;5.73;5.23;;;20.30;86.00;21.30;100216.00;;;;5099803;28;20192;-50
2023/10/13 04:17:15;;;;;;;7.57;6.30;;;20.10;87.80;21.20;100210.00;;;;5073637;28;20180;-48
2023/10/13 04:23:17;;;;;;;8.77;6.00;;;20.10;87.80;21.20;100219.00;;;;5068384;28;20224;-48
2023/10/13 04:36:36;;;;;;;7.30;5.53;;;20.00;88.40;21.10;100190.00;;;;5070125;28;20268;-47
2023/10/13 04:44:47;;;;;;;6.37;5.40;;;19.90;89.20;21.10;100167.00;;;;5089983;28;20624;-47
2023/10/13 04:49:29;;;;;;;8.43;6.00;;;20.00;88.40;21.10;100172.00;;;;5088990;28;20718;-49
2023/10/13 04:51:59;;;;;;;9.83;5.77;;;20.00;89.20;21.10;100167.00;;;;5089746;28;20172;-48
2023/10/13 04:54:34;;;;;;;9.07;5.93;;;20.00;88.70;21.10;100156.00;;;;5089612;28;20202;-47
2023/10/13 05:46:48;;;;;;;8.13;6.00;;;19.80;90.60;20.90;100151.00;;;;5090063;28;20573;-48
2023/10/13 06:29:53;;;;;;;7.03;5.50;;;20.00;90.40;21.10;100160.00;;;;5087805;28;20716;-48
2023/10/13 06:32:25;;;;;;;6.67;5.30;;;20.00;90.80;21.10;100153.00;;;;5071553;28;20203;-48
2023/10/13 06:34:58;;;;;;;9.37;5.57;;;20.00;90.70;21.10;100153.00;;;;5088599;28;20199;-48
2023/10/13 06:37:30;;;;;;;8.17;5.20;;;20.00;91.20;21.10;100151.00;;;;5081965;28;20260;-48
2023/10/13 06:39:57;;;;;;;6.47;5.13;;;20.10;90.40;21.10;100140.00;;;;5087156;28;20197;-48
2023/10/13 06:42:27;;;;;;;5.57;4.70;;;20.10;90.10;21.10;100139.00;;;;5092534;28;20419;-48
2023/10/13 06:44:56;;;;;;;5.63;4.60;;;20.20;89.60;21.20;100136.00;;;;5085633;28;20177;-48
2023/10/13 06:47:24;;;;;;;5.10;4.60;;;20.20;89.00;21.20;100130.00;;;;5094345;28;20201;-48
2023/10/13 06:49:54;;;;;;;5.30;4.60;;;20.30;88.70;21.20;100146.00;;;;5092649;28;20205;-48
2023/10/13 06:52:22;;;;;;;5.43;4.93;;;20.30;88.50;21.30;100125.00;;;;5092223;28;20165;-48
2023/10/13 06:54:51;;;;;;;6.57;4.97;;;20.30;88.10;21.30;100106.00;;;;5073650;28;20262;-48
2023/10/13 06:57:20;;;;;;;6.97;4.63;;;20.30;88.00;21.30;100084.00;;;;5072037;28;20180;-49
2023/10/13 06:59:49;;;;;;;5.23;4.73;;;20.30;87.80;21.30;100076.00;;;;5090422;28;20286;-49
2023/10/13 07:02:21;;;;;;;4.50;4.10;;;20.30;87.50;21.30;100068.00;;;;5092073;28;20184;-48
2023/10/13 07:05:11;;;;;;;4.83;4.30;;;20.30;87.40;21.30;100080.00;;;;5083192;28;20590;-48
2023/10/13 07:07:39;;;;;;;6.00;4.77;;;20.40;87.30;21.40;100087.00;;;;5092457;28;20201;-49
2023/10/13 07:10:12;;;;;;;5.30;4.30;;;20.40;87.00;21.40;100086.00;;;;5078755;28;20197;-49
2023/10/13 07:12:43;;;;;;;4.57;4.17;;;20.40;86.90;21.40;100083.00;;;;5071072;28;20235;-49
2023/10/13 07:17:44;;;;;;;5.23;4.27;;;20.40;86.60;21.40;100086.00;;;;5071852;28;20606;-48
2023/10/13 07:20:44;;;;;;;4.57;4.17;;;20.40;86.50;21.40;100077.00;;;;5086765;28;20192;-49
2023/10/13 07:23:06;;;;;;;4.47;4.07;;;20.40;86.40;21.40;100086.00;;;;5074213;28;20227;-49
2023/10/13 07:25:33;;;;;;;5.50;4.00;;;20.40;86.20;21.40;100090.00;;;;5073448;28;20181;-49
2023/10/13 07:28:10;;;;;;;5.47;4.13;;;20.40;86.10;21.40;100078.00;;;;5071019;28;20190;-49
2023/10/13 07:31:20;;;;;;;4.80;4.30;;;20.40;86.00;21.40;100083.00;;;;5090267;28;20205;-49
2023/10/13 07:33:27;;;;;;;4.87;4.10;;;20.50;86.00;21.40;100082.00;;;;5077966;28;20686;-49
2023/10/13 07:36:27;;;;;;;5.13;4.03;;;20.40;85.80;21.40;100075.00;;;;5091797;28;20173;-49
2023/10/13 07:39:20;;;;;;;4.50;4.10;;;20.40;85.70;21.30;100079.00;;;;5091580;28;20185;-48
2023/10/13 07:41:51;;;;;;;4.30;3.90;;;20.40;85.50;21.40;100079.00;;;;5090646;28;20195;-49
2023/10/13 07:44:31;;;;;;;4.40;4.00;;;20.50;85.60;21.40;100074.00;;;;5092388;28;20181;-48
2023/10/13 07:47:02;;;;;;;5.00;4.07;;;20.40;85.50;21.40;100064.00;;;;5083199;28;20181;-49
2023/10/13 07:49:36;;;;;;;5.03;4.10;;;20.40;85.50;21.40;100075.00;;;;5090388;28;20204;-49
2023/10/13 07:55:03;;;;;;;5.60;4.30;;;20.50;85.60;21.40;100065.00;;;;5083912;28;20184;-49
2023/10/13 07:57:29;;;;;;;4.60;4.07;;;20.50;85.40;21.50;100055.00;;;;5091628;28;20193;-51
2023/10/13 08:00:08;;;;;;;4.30;3.90;;;20.50;85.30;21.50;100068.00;;;;5090961;28;20203;-49
2023/10/13 08:03:07;;;;;;;6.60;4.07;;;20.50;85.20;21.50;100061.00;;;;5081320;28;20216;-48
2023/10/13 08:05:39;;;;;;;4.30;3.90;;;20.50;86.00;21.50;100061.00;;;;5070539;28;20196;-49
2023/10/13 08:08:14;;;;;;;4.27;3.90;;;20.50;85.20;21.50;100059.00;;;;5086442;28;20267;-48
2023/10/13 08:10:42;;;;;;;4.37;3.90;;;20.50;85.10;21.50;100051.00;;;;5088793;28;20224;-48
2023/10/13 08:13:12;;;;;;;4.80;4.30;;;20.50;85.20;21.50;100050.00;;;;5084612;28;20224;-48
2023/10/13 08:15:47;;;;;;;4.93;3.67;;;20.50;85.20;21.50;100037.00;;;;5087719;28;20173;-49
2023/10/13 08:18:33;;;;;;;4.80;3.80;;;20.50;85.00;21.50;100044.00;;;;5081892;28;20172;-48
2023/10/13 08:21:05;;;;;;;4.07;3.60;;;20.50;85.10;21.50;100038.00;;;;5090277;28;20212;-49
2023/10/13 08:23:58;;;;;;;4.30;3.63;;;20.50;85.00;21.50;100024.00;;;;5084847;28;20208;-49
2023/10/13 08:50:48;;;;;;;5.50;4.20;;;20.50;85.80;21.60;100040.00;;;;5089766;28;20205;-48
2023/10/13 08:53:44;;;;;;;5.90;4.40;;;20.60;86.20;21.60;100034.00;;;;5092369;28;20219;-48
2023/10/13 09:01:59;;;;;;;7.43;4.30;;;20.60;85.80;21.60;100023.00;;;;5087300;28;20184;-49
2023/10/13 09:04:34;;;;;;;5.77;4.07;;;20.60;85.80;21.60;100012.00;;;;5089655;28;20187;-47
2023/10/13 09:09:43;;;;;;;6.10;4.07;;;20.60;85.70;21.60;100020.00;;;;5087649;28;20274;-48
2023/10/13 09:15:17;;;;;;;10.43;4.63;;;20.60;86.10;21.60;100007.00;;;;5089165;28;20187;-48
2023/10/13 09:18:12;;;;;;;7.10;4.20;;;20.60;86.30;21.60;100001.00;;;;5089510;28;20196;-49
2023/10/13 09:23:09;;;;;;;8.03;3.97;;;20.70;86.20;21.60;99994.00;;;;5075433;28;20197;-49
2023/10/13 09:25:37;;;;;;;5.37;4.23;;;20.70;86.40;21.60;99979.00;;;;5085868;28;20192;-49
2023/10/13 09:28:21;;;;;;;7.27;4.37;;;20.70;86.40;21.60;99989.00;;;;5083985;28;20208;-48
2023/10/13 09:30:49;;;;;;;7.13;4.57;;;20.70;86.70;21.60;99979.00;;;;5082952;28;20288;-48
2023/10/13 09:33:28;;;;;;;7.13;4.40;;;20.70;86.60;21.60;99978.00;;;;5084056;28;20210;-48
2023/10/13 09:35:54;;;;;;;7.37;4.47;;;20.70;86.70;21.60;99971.00;;;;5053635;28;20181;-49
2023/10/13 09:38:20;;;;;;;7.43;4.43;;;20.70;86.80;21.70;99977.00;;;;5074843;28;20181;-48
2023/10/13 09:40:49;;;;;;;6.47;4.30;;;20.70;87.60;21.70;99975.00;;;;5088678;28;20584;-48
2023/10/13 09:43:19;;;;;;;7.43;4.13;;;20.70;86.70;21.70;99973.00;;;;5102931;28;20193;-48
2023/10/13 09:46:02;;;;;;;6.17;4.47;;;20.70;86.80;21.70;99971.00;;;;5084066;28;20188;-48
2023/10/13 09:48:35;;;;;;;6.90;4.00;;;20.80;87.00;21.70;99953.00;;;;5076830;28;20204;-48
2023/10/13 09:51:08;;;;;;;4.93;4.03;;;20.80;87.00;21.70;99958.00;;;;5088370;28;20239;-47
2023/10/13 09:53:34;;;;;;;5.97;4.23;;;20.80;87.00;21.50;99949.00;;;;5086087;28;20259;-48
2023/10/13 09:56:19;;;;;;;7.37;4.70;;;20.80;86.90;21.70;99964.00;;;;5043543;28;20207;-49
2023/10/13 09:59:12;;;;;;;7.70;3.97;;;20.80;87.00;21.80;99946.00;;;;5086327;28;20682;-48
2023/10/13 10:01:50;;;;;;;6.63;4.53;;;20.90;87.00;21.70;99944.00;;;;5082967;28;20180;-48
2023/10/13 10:04:18;;;;;;;8.07;4.23;;;20.90;87.10;21.80;99946.00;;;;5076327;28;20185;-47
2023/10/13 10:06:59;;;;;;;7.27;4.23;;;20.90;87.00;21.80;99932.00;;;;5087557;28;20204;-48
2023/10/13 10:09:37;;;;;;;5.60;3.97;;;20.90;86.80;21.80;99947.00;;;;5087756;28;20196;-49
2023/10/13 10:12:33;;;;;;;7.50;4.67;;;20.90;86.80;21.80;99935.00;;;;5080736;28;20201;-48
2023/10/13 10:15:30;;;;;;;6.03;4.07;;;20.90;87.60;21.80;99941.00;;;;5082478;28;20212;-48
2023/10/13 10:17:56;;;;;;;7.63;4.40;;;20.90;86.80;21.80;99929.00;;;;5089027;28;20181;-48
2023/10/13 10:20:42;;;;;;;10.87;4.77;;;20.90;86.70;21.80;99943.00;;;;5088744;28;20224;-48
2023/10/13 10:23:21;;;;;;;7.13;4.93;;;20.90;86.60;21.80;99946.00;;;;5089354;28;20219;-48
2023/10/13 10:25:47;;;;;;;5.73;4.37;;;21.00;86.80;21.80;99953.00;;;;5089505;28;20176;-47
2023/10/13 10:28:15;;;;;;;6.07;4.20;;;20.90;86.80;21.80;99949.00;;;;5089140;28;20220;-48
2023/10/13 10:30:42;;;;;;;7.77;4.80;;;21.00;86.80;21.90;99949.00;;;;5068972;28;20208;-48
2023/10/13 10:33:12;;;;;;;8.20;4.77;;;21.00;86.80;21.90;99949.00;;;;5067547;28;20213;-48
2023/10/13 10:35:42;;;;;;;5.90;4.17;;;21.00;86.80;21.90;99952.00;;;;5067471;28;20214;-48
2023/10/13 10:38:16;;;;;;;5.70;4.77;;;21.00;86.90;21.90;99945.00;;;;5068204;28;20689;-49
2023/10/13 10:40:51;;;;;;;7.30;4.47;;;21.00;86.90;21.90;99947.00;;;;5068619;28;20263;-48
2023/10/13 10:43:18;;;;;;;5.33;4.50;;;21.00;86.90;21.90;99866.00;;;;5068540;28;20196;-48
2023/10/13 10:45:51;;;;;;;5.23;4.23;;;21.00;86.80;21.90;99920.00;;;;5086499;28;20693;-48
2023/10/13 10:48:17;;;;;;;6.73;4.90;;;21.10;86.80;21.90;99925.00;;;;5089995;28;20200;-48
2023/10/13 10:50:57;;;;;;;5.20;4.70;;;21.10;86.80;22.00;99923.00;;;;5073851;28;20570;-48
2023/10/13 10:53:32;;;;;;;8.90;4.73;;;21.10;86.60;22.00;99915.00;;;;5091025;28;20184;-48
2023/10/13 10:56:05;;;;;;;4.83;4.33;;;21.10;86.60;22.00;99904.00;;;;5092332;28;20749;-48
2023/10/13 10:58:43;;;;;;;7.13;4.67;;;21.10;86.50;22.00;99907.00;;;;5089435;28;20212;-48
2023/10/13 11:01:18;;;;;;;6.20;4.77;;;21.20;86.70;22.00;99908.00;;;;5079576;28;20205;-47
2023/10/13 11:06:54;;;;;;;6.90;4.80;;;21.20;87.00;22.00;99881.00;;;;5087652;28;20188;-48
2023/10/13 11:09:45;;;;;;;6.43;5.13;;;21.20;87.20;22.10;99892.00;;;;5084909;28;20205;-48
2023/10/13 11:12:15;;;;;;;5.10;4.60;;;21.20;88.10;22.10;99886.00;;;;5084185;28;20181;-48
2023/10/13 11:14:47;;;;;;;6.10;4.80;;;21.30;87.40;22.10;99886.00;;;;5072696;28;20283;-48
2023/10/13 11:20:17;;;;;;;6.27;5.20;;;21.30;87.60;22.10;99858.00;;;;5084850;28;20208;-48
2023/10/13 11:22:50;;;;;;;7.70;5.00;;;21.30;87.20;22.20;99861.00;;;;5091559;28;20188;-48
2023/10/13 11:25:29;;;;;;;6.90;5.37;;;21.40;87.40;22.20;99854.00;;;;5091583;28;20185;-49
2023/10/13 11:27:56;;;;;;;7.50;5.07;;;21.40;87.40;22.20;99864.00;;;;5091974;28;20197;-49
2023/10/13 11:30:29;;;;;;;6.83;5.40;;;21.30;87.30;22.20;99854.00;;;;5074315;28;20194;-49
2023/10/13 11:33:06;;;;;;;6.40;5.10;;;21.30;87.40;22.20;99858.00;;;;5071233;28;20177;-49
2023/10/13 11:38:25;;;;;;;5.37;4.87;;;21.40;87.30;22.20;99870.00;;;;5071357;28;20242;-48
2023/10/13 11:43:35;;;;;;;6.30;5.30;;;21.40;87.20;22.30;99856.00;;;;5093080;28;20201;-49
2023/10/13 11:48:36;;;;;;;5.40;4.90;;;21.40;87.40;22.30;99841.00;;;;5085237;28;20212;-48
2023/10/13 11:51:08;;;;;;;5.73;5.23;;;21.50;87.00;22.30;99837.00;;;;5070772;28;20201;-49
2023/10/13 11:53:37;;;;;;;5.43;4.90;;;21.50;86.80;22.40;99836.00;;;;5075896;28;20304;-49
2023/10/13 11:56:08;;;;;;;7.97;5.20;;;21.50;86.70;22.40;99830.00;;;;5092326;28;20173;-50
2023/10/13 11:58:37;;;;;;;5.83;5.10;;;21.50;86.70;22.40;99817.00;;;;5093420;28;20181;-48
2023/10/13 12:11:50;;;;;;;5.73;5.23;;;21.50;86.30;22.50;99826.00;;;;5070164;28;20178;-49
2023/10/13 12:14:17;;;;;;;6.87;5.00;;;21.50;86.40;22.50;99826.00;;;;5073525;28;20170;-48
2023/10/13 12:16:50;;;;;;;7.07;5.33;;;21.50;86.30;22.50;99819.00;;;;5090093;28;20184;-48
2023/10/13 12:19:17;;;;;;;6.60;5.07;;;21.50;86.30;22.50;99812.00;;;;5090408;28;20655;-48
2023/10/13 12:21:44;;;;;;;5.37;4.87;;;21.50;86.20;22.50;99818.00;;;;5090308;28;20179;-48
2023/10/13 12:24:22;;;;;;;6.20;5.37;;;21.50;86.20;22.50;99820.00;;;;5086546;28;20192;-48
2023/10/13 12:26:55;;;;;;;7.37;5.63;;;21.50;86.20;22.50;99823.00;;;;5074942;28;20181;-48
2023/10/13 12:29:27;;;;;;;5.50;5.00;;;21.50;86.10;22.50;99806.00;;;;5090447;28;20205;-49
2023/10/13 12:32:11;;;;;;;6.33;5.00;;;21.50;86.10;22.60;99820.00;;;;5090801;28;20283;-48
2023/10/13 12:34:57;;;;;;;5.37;4.87;;;21.50;86.20;22.60;99804.00;;;;5090286;28;20777;-49
2023/10/13 12:37:49;;;;;;;6.13;5.23;;;21.60;86.40;22.60;99797.00;;;;5090735;28;20650;-48
2023/10/13 12:53:55;;;;;;;5.70;5.00;;;21.70;85.90;22.60;99799.00;;;;5089129;28;20169;-48
2023/10/13 12:56:25;;;;;;;5.50;5.00;;;21.70;85.90;22.70;99792.00;;;;5089880;28;20586;-50
2023/10/13 12:58:51;;;;;;;5.43;4.93;;;21.60;85.80;22.70;99765.00;;;;5090060;28;20267;-48
2023/10/13 13:01:32;;;;;;;5.10;4.60;;;21.70;86.50;22.70;99788.00;;;;5088820;28;20273;-49
2023/10/13 13:03:58;;;;;;;5.67;5.17;;;21.60;85.50;22.70;99784.00;;;;5089903;28;20181;-49
2023/10/13 13:06:26;;;;;;;6.40;5.50;;;21.60;85.50;22.70;99783.00;;;;5088920;28;20731;-49
2023/10/13 13:08:52;;;;;;;5.63;4.80;;;21.70;85.60;22.70;99788.00;;;;5091601;28;20255;-50
2023/10/13 13:11:18;;;;;;;5.30;4.80;;;21.60;85.40;22.70;99777.00;;;;5069050;28;20262;-49
2023/10/13 13:13:46;;;;;;;6.53;5.27;;;21.60;85.40;22.70;99792.00;;;;5089073;28;20651;-49
2023/10/13 13:16:18;;;;;;;5.10;4.60;;;21.70;85.40;22.80;99778.00;;;;5089787;28;20187;-49
2023/10/13 13:18:47;;;;;;;6.77;4.90;;;21.70;85.40;22.80;99788.00;;;;5089304;28;20655;-48
2023/10/13 13:21:19;;;;;;;4.97;4.57;;;21.70;85.20;22.80;99791.00;;;;5089517;28;20581;-48
2023/10/13 13:23:58;;;;;;;5.27;4.70;;;21.70;86.00;22.80;99790.00;;;;5084783;28;20189;-48
2023/10/13 13:26:24;;;;;;;5.60;5.10;;;21.70;85.20;22.80;99773.00;;;;5081012;28;20173;-49
2023/10/13 13:28:52;;;;;;;5.77;4.83;;;21.70;85.20;22.80;99788.00;;;;5068161;28;20221;-48
2023/10/13 13:31:29;;;;;;;5.70;4.87;;;21.70;85.20;22.80;99782.00;;;;5078643;28;20264;-49
2023/10/13 13:33:55;;;;;;;4.97;4.47;;;21.70;85.20;22.80;99792.00;;;;5072116;28;20574;-48
2023/10/13 13:36:22;;;;;;;5.83;5.00;;;21.70;85.10;22.90;99784.00;;;;5084644;28;20954;-49
2023/10/13 13:38:54;;;;;;;8.53;4.97;;;21.70;85.20;22.90;99789.00;;;;5069437;28;20181;-49
2023/10/13 13:41:20;;;;;;;5.87;4.87;;;21.80;85.10;22.90;99788.00;;;;5069730;28;20280;-48
2023/10/13 13:46:19;;;;;;;6.00;5.00;;;21.80;85.00;22.90;99777.00;;;;5080516;28;20246;-48
2023/10/13 13:48:48;;;;;;;6.33;5.10;;;21.80;85.00;22.90;99786.00;;;;5073363;28;20205;-48
2023/10/13 13:51:19;;;;;;;5.07;4.63;;;21.80;84.70;22.90;99775.00;;;;5079350;28;20543;-49
2023/10/13 13:53:45;;;;;;;6.40;5.17;;;21.80;84.70;22.90;99770.00;;;;5088591;28;20558;-49
2023/10/13 13:56:16;;;;;;;6.40;4.73;;;21.80;84.70;23.00;99783.00;;;;5089948;28;20177;-48
2023/10/13 13:58:43;;;;;;;5.30;4.80;;;21.80;84.60;23.00;99780.00;;;;5093598;28;20189;-48
2023/10/13 14:01:12;;;;;;;5.67;4.70;;;21.80;84.50;23.00;99788.00;;;;5098984;28;20245;-49
2023/10/13 14:03:47;;;;;;;5.20;4.70;;;21.80;84.40;23.00;99782.00;;;;5089096;28;20651;-48
2023/10/13 14:06:23;;;;;;;5.80;4.83;;;21.80;84.40;23.00;99780.00;;;;5079724;28;20638;-48
2023/10/13 14:08:51;;;;;;;5.37;4.50;;;21.80;84.40;23.00;99769.00;;;;5091256;28;20743;-49
2023/10/13 14:12:25;;;;;;;4.90;4.40;;;21.80;84.40;23.00;99768.00;;;;5069028;28;20675;-48
2023/10/13 14:14:13;;;;;;;5.83;4.83;;;21.80;84.40;23.00;99769.00;;;;5082996;28;20250;-48
2023/10/13 14:16:46;;;;;;;5.80;4.70;;;21.80;84.30;23.00;99773.00;;;;5088109;28;20188;-48
2023/10/13 14:19:12;;;;;;;6.40;5.07;;;21.80;84.30;23.00;99771.00;;;;5088308;28;20173;-48
2023/10/13 14:21:38;;;;;;;6.17;4.87;;;21.80;84.20;23.00;99760.00;;;;5088582;28;20223;-48
2023/10/13 14:24:13;;;;;;;5.23;4.73;;;21.80;84.10;23.00;99766.00;;;;5089555;28;20173;-49
2023/10/13 14:26:39;;;;;;;4.73;4.33;;;21.80;84.10;23.00;99763.00;;;;5090494;28;20253;-48
2023/10/13 14:29:08;;;;;;;5.50;5.00;;;21.80;84.10;23.00;99776.00;;;;5092145;28;20207;-48
2023/10/13 14:31:36;;;;;;;5.13;4.23;;;21.80;84.00;23.00;99770.00;;;;5092310;28;20191;-49
2023/10/13 14:34:02;;;;;;;5.00;4.50;;;21.80;83.90;23.10;99775.00;;;;5091851;28;20181;-47
2023/10/13 14:36:28;;;;;;;5.23;4.73;;;21.90;83.90;23.10;99761.00;;;;5091225;28;20419;-49
2023/10/13 14:38:57;;;;;;;5.90;5.00;;;21.90;83.70;23.10;99758.00;;;;5092587;28;20192;-48
2023/10/13 14:41:23;;;;;;;6.00;5.00;;;21.90;83.60;23.10;99756.00;;;;5092085;28;20591;-48
2023/10/13 14:43:49;;;;;;;6.43;4.83;;;21.90;84.00;23.10;99754.00;;;;5087161;28;20688;-48
2023/10/13 14:46:25;;;;;;;8.23;5.27;;;21.90;83.50;23.10;99754.00;;;;5071558;28;20222;-49
2023/10/13 14:48:54;;;;;;;6.83;4.93;;;21.90;83.40;23.10;99770.00;;;;5084182;28;20196;-48
2023/10/13 14:51:19;;;;;;;5.63;4.93;;;21.90;83.30;23.10;99754.00;;;;5092482;28;20208;-49
2023/10/13 14:53:46;;;;;;;8.90;5.30;;;21.90;83.20;23.10;99751.00;;;;5073542;28;20697;-49